createdAt,value
2018-07-21T00:01:24.286Z,73.50
2018-07-21T00:03:52.566Z,73.30
2018-07-21T00:06:20.668Z,73.50
2018-07-21T00:08:48.798Z,73.50
2018-07-21T00:11:16.882Z,73.50
2018-07-21T00:13:44.966Z,73.50
2018-07-21T00:18:40.953Z,73.70
2018-07-21T00:21:09.082Z,73.50
2018-07-21T00:23:37.158Z,73.50
2018-07-21T00:28:33.136Z,73.60
2018-07-21T00:31:01.222Z,73.40
2018-07-21T00:33:29.313Z,73.20
2018-07-21T00:35:57.670Z,73.10
2018-07-21T00:38:25.786Z,73.30
2018-07-21T00:40:53.869Z,73.10
2018-07-21T00:43:21.973Z,72.50
2018-07-21T00:45:50.066Z,73.00
2018-07-21T00:48:18.158Z,72.90
2018-07-21T00:50:46.514Z,72.90
2018-07-21T00:53:14.655Z,72.90
2018-07-21T00:55:42.743Z,73.00
2018-07-21T00:58:10.830Z,73.70
2018-07-21T01:00:38.908Z,73.10
2018-07-21T01:03:06.970Z,73.20
2018-07-21T01:05:35.142Z,73.30
2018-07-21T01:08:03.199Z,73.40
2018-07-21T01:10:31.520Z,73.60
2018-07-21T01:12:59.974Z,73.60
2018-07-21T01:15:28.357Z,74.70
2018-07-21T01:17:56.426Z,74.00
2018-07-21T01:20:24.538Z,74.30
2018-07-21T01:22:52.603Z,74.30
2018-07-21T01:25:20.667Z,74.10
2018-07-21T01:27:49.139Z,74.30
2018-07-21T01:30:17.326Z,74.40
2018-07-21T01:32:45.416Z,74.40
2018-07-21T01:35:13.474Z,74.50
2018-07-21T01:37:41.550Z,75.20
2018-07-21T01:40:09.598Z,74.60
2018-07-21T01:42:37.658Z,74.60
2018-07-21T01:45:05.858Z,74.80
2018-07-21T01:47:33.938Z,74.80
2018-07-21T01:50:02.378Z,75.00
2018-07-21T01:52:30.478Z,75.70
2018-07-21T01:54:58.643Z,75.30
2018-07-21T01:57:26.756Z,75.20
2018-07-21T01:59:54.833Z,75.80
2018-07-21T02:02:22.902Z,75.80
2018-07-21T02:04:51.154Z,75.70
2018-07-21T02:07:19.251Z,75.70
2018-07-21T02:12:15.706Z,76.00
2018-07-21T02:14:43.778Z,76.80
2018-07-21T02:17:11.846Z,76.50
2018-07-21T02:19:39.954Z,76.50
2018-07-21T02:22:08.031Z,76.50
2018-07-21T02:24:36.142Z,76.60
2018-07-21T02:29:32.582Z,76.80
2018-07-21T02:32:00.728Z,76.70
2018-07-21T02:34:28.802Z,76.70
2018-07-21T02:36:56.963Z,77.60
2018-07-21T02:39:25.132Z,77.50
2018-07-21T02:41:53.227Z,77.40
2018-07-21T02:44:21.418Z,77.40
2018-07-21T02:46:49.502Z,77.40
2018-07-21T02:49:17.846Z,77.40
2018-07-21T02:51:45.918Z,77.50
2018-07-21T02:54:13.996Z,77.50
2018-07-21T02:56:42.062Z,77.60
2018-07-21T02:59:10.134Z,77.70
2018-07-21T03:01:38.219Z,77.80
2018-07-21T03:04:06.302Z,78.50
2018-07-21T03:06:34.361Z,77.90
2018-07-21T03:09:02.448Z,78.00
2018-07-21T03:11:30.821Z,78.10
2018-07-21T03:13:58.894Z,78.10
2018-07-21T03:16:26.971Z,78.50
2018-07-21T03:18:55.089Z,78.50
2018-07-21T03:21:23.191Z,79.00
2018-07-21T03:23:51.271Z,78.90
2018-07-21T03:26:19.690Z,78.90
2018-07-21T03:28:47.751Z,78.80
2018-07-21T03:31:15.807Z,78.70
2018-07-21T03:33:43.998Z,78.70
2018-07-21T03:36:12.078Z,78.80
2018-07-21T03:38:40.137Z,78.90
2018-07-21T03:41:08.586Z,78.90
2018-07-21T03:43:36.659Z,79.70
2018-07-21T03:46:04.921Z,79.10
2018-07-21T03:48:33.017Z,79.10
2018-07-21T03:51:01.169Z,79.20
2018-07-21T03:53:29.223Z,79.30
2018-07-21T03:55:57.293Z,79.30
2018-07-21T03:58:25.365Z,79.80
2018-07-21T04:00:53.454Z,79.80
2018-07-21T04:03:21.806Z,80.20
2018-07-21T04:05:49.990Z,80.10
2018-07-21T04:08:18.098Z,80.10
2018-07-21T04:10:46.182Z,80.30
2018-07-21T04:13:14.270Z,80.40
2018-07-21T04:15:42.342Z,80.40
2018-07-21T04:18:10.415Z,80.30
2018-07-21T04:20:38.486Z,80.20
2018-07-21T04:23:06.563Z,81.00
2018-07-21T04:25:35.007Z,80.30
2018-07-21T04:28:03.082Z,80.30
2018-07-21T04:30:31.156Z,80.60
2018-07-21T04:32:59.235Z,80.60
2018-07-21T04:35:27.300Z,80.80
2018-07-21T04:37:55.375Z,80.90
2018-07-21T04:40:23.850Z,81.10
2018-07-21T04:42:51.930Z,81.20
2018-07-21T04:45:20.018Z,81.50
2018-07-21T04:47:48.368Z,81.50
2018-07-21T04:50:16.521Z,81.50
2018-07-21T04:52:44.622Z,81.50
2018-07-21T04:55:12.698Z,81.50
2018-07-21T04:57:40.773Z,81.50
2018-07-21T05:00:09.004Z,81.50
2018-07-21T05:02:37.170Z,81.70
2018-07-21T05:05:05.240Z,81.90
2018-07-21T05:07:33.344Z,82.00
2018-07-21T05:10:01.612Z,82.10
2018-07-21T05:12:29.709Z,82.90
2018-07-21T05:14:57.794Z,82.00
2018-07-21T05:17:26.123Z,82.00
2018-07-21T05:19:54.197Z,82.10
2018-07-21T05:22:22.278Z,82.00
2018-07-21T05:24:50.682Z,82.20
2018-07-21T05:27:18.773Z,82.10
2018-07-21T05:29:46.854Z,82.40
2018-07-21T05:32:14.948Z,82.20
2018-07-21T05:34:43.032Z,82.00
2018-07-21T05:37:11.086Z,81.80
2018-07-21T05:42:07.089Z,81.30
2018-07-21T05:44:35.179Z,81.10
2018-07-21T05:47:03.493Z,80.90
2018-07-21T05:49:31.579Z,80.90
2018-07-21T05:51:59.642Z,80.80
2018-07-21T05:54:28.003Z,80.70
2018-07-21T05:56:56.066Z,80.60
2018-07-21T05:59:24.177Z,80.50
2018-07-21T06:01:52.567Z,80.30
2018-07-21T06:04:20.643Z,80.10
2018-07-21T06:06:48.726Z,79.80
2018-07-21T06:09:17.038Z,79.60
2018-07-21T06:11:45.146Z,79.40
2018-07-21T06:14:13.218Z,79.40
2018-07-21T06:16:41.613Z,79.20
2018-07-21T06:19:09.778Z,79.00
2018-07-21T06:21:37.870Z,78.80
2018-07-21T06:24:06.240Z,78.40
2018-07-21T06:26:34.312Z,77.90
2018-07-21T06:29:02.383Z,77.70
2018-07-21T06:31:30.698Z,77.30
2018-07-21T06:33:58.762Z,76.70
2018-07-21T06:36:26.832Z,76.40
2018-07-21T06:38:55.184Z,76.50
2018-07-21T06:41:23.326Z,76.30
2018-07-21T06:43:51.583Z,76.30
2018-07-21T06:46:19.610Z,76.20
2018-07-21T06:48:47.682Z,76.60
2018-07-21T06:51:15.754Z,75.60
2018-07-21T06:53:44.243Z,75.30
2018-07-21T06:56:12.306Z,75.00
2018-07-21T06:58:40.390Z,74.50
2018-07-21T07:01:08.714Z,74.10
2018-07-21T07:03:36.790Z,73.70
2018-07-21T07:06:04.886Z,73.80
2018-07-21T07:08:33.275Z,73.50
2018-07-21T07:11:01.350Z,73.50
2018-07-21T07:13:29.420Z,73.20
2018-07-21T07:15:59.204Z,72.70
2018-07-21T07:18:27.322Z,72.50
2018-07-21T07:20:55.398Z,72.20
2018-07-21T07:23:23.747Z,72.20
2018-07-21T07:25:51.866Z,71.70
2018-07-21T07:28:19.986Z,71.40
2018-07-21T07:30:48.334Z,70.90
2018-07-21T07:33:16.938Z,70.80
2018-07-21T07:38:13.607Z,70.60
2018-07-21T07:40:42.445Z,70.30
2018-07-21T07:43:10.571Z,70.30
2018-07-21T07:45:45.356Z,70.30
2018-07-21T07:48:13.505Z,69.70
2018-07-21T07:50:41.602Z,69.70
2018-07-21T07:53:09.689Z,69.50
2018-07-21T07:55:37.762Z,69.40
2018-07-21T07:58:05.834Z,69.30
2018-07-21T08:00:34.257Z,69.20
2018-07-21T08:03:02.744Z,68.90
2018-07-21T08:05:31.022Z,68.50
2018-07-21T08:07:59.582Z,68.10
2018-07-21T08:10:27.883Z,68.00
2018-07-21T08:12:56.007Z,67.80
2018-07-21T08:15:24.410Z,67.50
2018-07-21T08:17:52.579Z,67.60
2018-07-21T08:20:20.707Z,67.40
2018-07-21T08:22:49.159Z,67.00
2018-07-21T08:25:17.250Z,66.70
2018-07-21T08:27:45.330Z,66.60
2018-07-21T08:30:13.473Z,66.20
2018-07-21T08:32:41.993Z,66.10
2018-07-21T08:35:10.078Z,65.10
2018-07-21T08:37:38.594Z,65.50
2018-07-21T08:40:08.026Z,65.10
2018-07-21T08:42:36.127Z,64.90
2018-07-21T08:45:04.514Z,64.70
2018-07-21T08:47:32.595Z,64.60
2018-07-21T08:50:00.718Z,64.30
2018-07-21T08:52:29.187Z,64.10
2018-07-21T08:54:57.270Z,64.30
2018-07-21T08:57:25.578Z,64.10
2018-07-21T08:59:53.694Z,63.40
2018-07-21T09:02:21.778Z,63.30
2018-07-21T09:04:50.009Z,62.90
2018-07-21T09:07:18.883Z,61.50
2018-07-21T09:09:46.958Z,61.40
2018-07-21T09:14:43.160Z,60.80
2018-07-21T09:17:11.244Z,60.50
2018-07-21T09:19:39.335Z,59.90
2018-07-21T09:22:07.666Z,59.70
2018-07-21T09:24:35.726Z,59.50
2018-07-21T09:27:03.791Z,59.30
2018-07-21T09:29:31.876Z,59.00
2018-07-21T09:31:59.953Z,58.40
2018-07-21T09:34:27.998Z,59.30
2018-07-21T09:36:56.391Z,57.90
2018-07-21T09:39:24.478Z,57.80
2018-07-21T09:41:52.568Z,57.30
2018-07-21T09:44:21.150Z,57.20
2018-07-21T09:46:49.246Z,56.50
2018-07-21T09:49:17.433Z,56.20
2018-07-21T09:51:45.678Z,55.80
2018-07-21T09:54:13.829Z,55.30
2018-07-21T09:56:41.906Z,55.30
2018-07-21T09:59:10.306Z,54.40
2018-07-21T10:01:38.463Z,54.00
2018-07-21T10:04:06.533Z,53.10
2018-07-21T10:06:34.914Z,53.80
2018-07-21T10:09:03.078Z,53.80
2018-07-21T10:11:31.159Z,53.60
2018-07-21T10:13:59.683Z,53.10
2018-07-21T10:16:27.777Z,53.40
2018-07-21T10:18:55.842Z,53.60
2018-07-21T10:23:52.196Z,53.50
2018-07-21T10:28:59.658Z,52.60
2018-07-21T10:31:28.003Z,52.20
2018-07-21T10:33:56.090Z,51.90
2018-07-21T10:36:24.224Z,52.00
2018-07-21T10:38:52.390Z,52.10
2018-07-21T10:41:20.632Z,52.40
2018-07-21T10:43:48.722Z,51.40
2018-07-21T10:46:16.823Z,52.10
2018-07-21T10:51:12.788Z,50.60
2018-07-21T10:53:41.193Z,50.30
2018-07-21T10:56:09.280Z,50.40
2018-07-21T10:58:37.390Z,50.40
2018-07-21T11:01:05.708Z,50.20
2018-07-21T11:03:33.782Z,49.60
2018-07-21T11:06:01.954Z,49.60
2018-07-21T11:08:30.307Z,49.60
2018-07-21T11:10:58.477Z,49.40
2018-07-21T11:13:26.659Z,49.20
2018-07-21T11:15:55.051Z,49.50
2018-07-21T11:18:23.134Z,49.00
2018-07-21T11:20:51.248Z,48.40
2018-07-21T11:23:19.601Z,48.20
2018-07-21T11:25:47.673Z,47.60
2018-07-21T11:28:15.773Z,47.20
2018-07-21T11:33:12.015Z,46.60
2018-07-21T11:35:40.321Z,46.70
2018-07-21T11:38:08.206Z,47.20
2018-07-21T11:40:36.266Z,46.80
2018-07-21T11:43:04.401Z,46.60
2018-07-21T11:45:32.734Z,47.00
2018-07-21T11:48:00.823Z,46.40
2018-07-21T11:50:28.882Z,47.10
2018-07-21T11:52:57.263Z,47.70
2018-07-21T11:55:25.344Z,47.70
2018-07-21T11:57:53.415Z,47.60
2018-07-21T12:00:21.794Z,47.60
2018-07-21T12:02:49.866Z,47.10
2018-07-21T12:05:18.061Z,46.40
2018-07-21T12:07:46.381Z,46.30
2018-07-21T12:10:14.438Z,45.90
2018-07-21T12:12:42.547Z,45.50
2018-07-21T12:15:10.666Z,45.50
2018-07-21T12:17:38.751Z,45.40
2018-07-21T12:20:06.867Z,46.00
2018-07-21T12:22:35.257Z,45.40
2018-07-21T12:25:03.349Z,45.40
2018-07-21T12:27:31.437Z,44.90
2018-07-21T12:32:28.514Z,45.30
2018-07-21T12:34:56.642Z,45.70
2018-07-21T12:37:24.726Z,45.70
2018-07-21T12:39:52.794Z,46.00
2018-07-21T12:42:20.875Z,46.50
2018-07-21T12:44:48.984Z,46.70
2018-07-21T12:47:17.082Z,46.80
2018-07-21T12:49:45.182Z,46.70
2018-07-21T12:52:13.892Z,46.10
2018-07-21T12:54:41.938Z,46.40
2018-07-21T12:57:10.421Z,46.30
2018-07-21T12:59:38.786Z,46.00
2018-07-21T13:02:06.870Z,45.60
2018-07-21T13:04:34.986Z,45.40
2018-07-21T13:07:03.408Z,45.50
2018-07-21T13:09:31.510Z,46.20
2018-07-21T13:11:59.642Z,46.30
2018-07-21T13:14:28.034Z,46.80
2018-07-21T13:16:56.200Z,47.00
2018-07-21T13:19:24.250Z,47.20
2018-07-21T13:21:52.364Z,47.30
2018-07-21T13:24:20.438Z,47.50
2018-07-21T13:26:48.522Z,47.60
2018-07-21T13:29:16.890Z,47.60
2018-07-21T13:31:45.030Z,47.90
2018-07-21T13:34:13.049Z,47.40
2018-07-21T13:36:41.406Z,47.40
2018-07-21T13:39:11.130Z,47.40
2018-07-21T13:41:39.458Z,47.50
2018-07-21T13:44:07.963Z,47.50
2018-07-21T13:46:36.047Z,47.80
2018-07-21T13:49:04.131Z,48.10
2018-07-21T13:51:32.903Z,47.90
2018-07-21T13:54:01.713Z,47.40
2018-07-21T13:56:30.799Z,47.10
2018-07-21T13:58:59.086Z,46.80
2018-07-21T14:01:27.180Z,46.90
2018-07-21T14:03:55.262Z,47.40
2018-07-21T14:06:23.629Z,48.20
2018-07-21T14:08:51.717Z,47.20
2018-07-21T14:11:19.817Z,47.10
2018-07-21T14:13:48.214Z,46.40
2018-07-21T14:16:16.755Z,46.30
2018-07-21T14:18:44.927Z,46.60
2018-07-21T14:21:13.352Z,46.90
2018-07-21T14:23:41.425Z,46.80
2018-07-21T14:26:09.525Z,45.80
2018-07-21T14:28:37.811Z,45.40
2018-07-21T14:31:06.030Z,45.50
2018-07-21T14:33:34.130Z,45.30
2018-07-21T14:36:02.330Z,45.60
2018-07-21T14:38:30.358Z,46.30
2018-07-21T14:40:58.442Z,46.30
2018-07-21T14:43:26.506Z,46.60
2018-07-21T14:45:54.651Z,46.80
2018-07-21T14:48:22.743Z,47.40
2018-07-21T14:50:51.126Z,46.70
2018-07-21T14:53:19.301Z,46.20
2018-07-21T14:55:47.362Z,46.10
2018-07-21T14:58:15.754Z,46.80
2018-07-21T15:00:43.826Z,47.10
2018-07-21T15:03:11.900Z,47.50
2018-07-21T15:05:40.277Z,47.40
2018-07-21T15:08:08.370Z,47.70
2018-07-21T15:10:36.486Z,48.50
2018-07-21T15:13:04.926Z,48.80
2018-07-21T15:15:32.998Z,48.10
2018-07-21T15:18:01.051Z,47.40
2018-07-21T15:20:29.144Z,46.10
2018-07-21T15:22:57.222Z,45.10
2018-07-21T15:25:25.319Z,44.90
2018-07-21T15:27:53.539Z,44.90
2018-07-21T15:30:21.598Z,44.60
2018-07-21T15:32:49.710Z,43.90
2018-07-21T15:35:18.080Z,43.30
2018-07-21T15:37:46.891Z,42.40
2018-07-21T15:40:14.929Z,42.60
2018-07-21T15:42:43.364Z,41.90
2018-07-21T15:45:11.451Z,41.80
2018-07-21T15:47:39.574Z,41.40
2018-07-21T15:50:07.918Z,41.20
2018-07-21T15:52:36.085Z,40.60
2018-07-21T15:55:04.318Z,39.90
2018-07-21T15:57:32.751Z,40.20
2018-07-21T16:00:00.834Z,40.50
2018-07-21T16:02:28.932Z,40.00
2018-07-21T16:04:56.987Z,39.50
2018-07-21T16:07:25.060Z,39.10
2018-07-21T16:09:53.201Z,38.60
2018-07-21T16:12:21.294Z,38.90
2018-07-21T16:14:49.783Z,38.20
2018-07-21T16:17:17.843Z,38.00
2018-07-21T16:19:46.224Z,37.40
2018-07-21T16:22:14.285Z,36.80
2018-07-21T16:24:42.502Z,36.30
2018-07-21T16:27:10.947Z,36.20
2018-07-21T16:29:39.009Z,35.90
2018-07-21T16:32:07.090Z,36.50
2018-07-21T16:34:35.449Z,36.00
2018-07-21T16:37:04.086Z,35.50
2018-07-21T16:39:32.161Z,35.00
2018-07-21T16:42:00.502Z,35.10
2018-07-21T16:44:28.599Z,35.00
2018-07-21T16:46:56.666Z,35.60
2018-07-21T16:49:25.298Z,34.80
2018-07-21T16:51:53.386Z,34.90
2018-07-21T16:54:21.494Z,35.00
2018-07-21T16:56:49.866Z,35.20
2018-07-21T16:59:18.056Z,35.90
2018-07-21T17:01:46.147Z,37.20
2018-07-21T17:06:42.426Z,40.00
2018-07-21T17:09:11.254Z,40.80
2018-07-21T17:11:39.815Z,41.60
2018-07-21T17:14:12.758Z,42.60
2018-07-21T17:16:41.062Z,43.10
2018-07-21T17:19:09.175Z,43.90
2018-07-21T17:21:37.330Z,44.40
2018-07-21T17:24:05.707Z,45.10
2018-07-21T17:26:33.778Z,45.90
2018-07-21T17:29:01.857Z,46.50
2018-07-21T17:31:30.230Z,47.10
2018-07-21T17:33:58.368Z,47.90
2018-07-21T17:36:26.457Z,48.60
2018-07-21T17:38:54.958Z,49.50
2018-07-21T17:41:23.041Z,49.90
2018-07-21T17:43:51.211Z,50.60
2018-07-21T17:46:19.347Z,51.20
2018-07-21T17:48:47.510Z,52.30
2018-07-21T17:51:15.939Z,52.60
2018-07-21T17:53:44.310Z,53.40
2018-07-21T17:56:12.592Z,53.30
2018-07-21T17:58:40.669Z,53.60
2018-07-21T18:01:09.035Z,54.60
2018-07-21T18:03:37.118Z,54.20
2018-07-21T18:06:05.257Z,54.60
2018-07-21T18:08:33.662Z,54.70
2018-07-21T18:11:01.795Z,55.10
2018-07-21T18:13:29.900Z,53.50
2018-07-21T18:15:58.538Z,52.50
2018-07-21T18:18:26.693Z,51.40
2018-07-21T18:20:54.762Z,50.20
2018-07-21T18:23:23.174Z,49.80
2018-07-21T18:25:51.282Z,49.70
2018-07-21T18:28:19.366Z,49.60
2018-07-21T18:30:47.711Z,49.40
2018-07-21T18:33:15.802Z,49.20
2018-07-21T18:35:43.887Z,48.90
2018-07-21T18:38:12.575Z,48.80
2018-07-21T18:40:40.654Z,48.90
2018-07-21T18:43:08.814Z,49.00
2018-07-21T18:45:37.242Z,49.00
2018-07-21T18:48:05.562Z,49.20
2018-07-21T18:50:33.750Z,49.20
2018-07-21T18:53:01.832Z,49.40
2018-07-21T18:55:30.254Z,50.10
2018-07-21T18:57:58.342Z,50.00
2018-07-21T19:00:26.700Z,50.30
2018-07-21T19:02:54.886Z,50.30
2018-07-21T19:05:22.996Z,50.40
2018-07-21T19:07:51.530Z,50.60
2018-07-21T19:10:19.627Z,51.00
2018-07-21T19:12:48.294Z,51.20
2018-07-21T19:16:20.737Z,51.50
2018-07-21T19:18:49.376Z,51.80
2018-07-21T19:21:18.931Z,52.00
2018-07-21T19:23:48.193Z,52.40
2018-07-21T19:26:21.606Z,52.60
2018-07-21T19:28:54.972Z,52.70
2018-07-21T19:33:51.098Z,53.10
2018-07-21T19:36:19.542Z,53.30
2018-07-21T19:38:47.925Z,53.40
2018-07-21T19:41:21.702Z,53.70
2018-07-21T19:43:49.869Z,53.80
2018-07-21T19:46:17.941Z,54.00
2018-07-21T19:48:47.516Z,54.20
2018-07-21T19:51:15.730Z,54.40
2018-07-21T19:53:43.965Z,54.50
2018-07-21T19:56:13.021Z,54.60
2018-07-21T19:58:41.394Z,54.70
2018-07-21T20:01:09.682Z,55.10
2018-07-21T20:03:38.089Z,55.50
2018-07-21T20:06:06.191Z,56.50
2018-07-21T20:08:34.324Z,56.50
2018-07-21T20:11:02.822Z,57.40
2018-07-21T20:13:30.987Z,57.30
2018-07-21T20:15:59.056Z,57.50
2018-07-21T20:18:27.598Z,57.90
2018-07-21T20:20:55.776Z,57.90
2018-07-21T20:25:52.231Z,58.80
2018-07-21T20:28:20.319Z,58.70
2018-07-21T20:30:48.525Z,59.00
2018-07-21T20:33:17.094Z,59.20
2018-07-21T20:35:45.190Z,59.50
2018-07-21T20:40:41.483Z,60.30
2018-07-21T20:43:09.970Z,60.70
2018-07-21T20:45:39.391Z,61.50
2018-07-21T20:48:07.878Z,61.60
2018-07-21T20:50:36.060Z,61.90
2018-07-21T20:55:32.468Z,62.60
2018-07-21T20:58:02.197Z,62.80
2018-07-21T21:00:30.927Z,62.80
2018-07-21T21:02:59.188Z,63.00
2018-07-21T21:05:27.282Z,63.30
2018-07-21T21:07:55.390Z,63.60
2018-07-21T21:10:23.691Z,63.70
2018-07-21T21:12:51.769Z,63.90
2018-07-21T21:15:19.905Z,63.90
2018-07-21T21:17:48.106Z,64.30
2018-07-21T21:20:17.523Z,64.20
2018-07-21T21:22:45.775Z,64.60
2018-07-21T21:25:13.866Z,64.40
2018-07-21T21:27:42.020Z,64.40
2018-07-21T21:30:10.227Z,64.50
2018-07-21T21:35:07.667Z,64.70
2018-07-21T21:37:36.054Z,64.70
2018-07-21T21:40:04.331Z,64.70
2018-07-21T21:42:32.432Z,64.80
2018-07-21T21:45:00.884Z,64.90
2018-07-21T21:47:29.970Z,64.80
2018-07-21T21:49:58.121Z,64.90
2018-07-21T21:52:26.244Z,64.90
2018-07-21T21:54:54.382Z,65.40
2018-07-21T21:57:22.460Z,65.50
2018-07-21T21:59:50.555Z,66.00
2018-07-21T22:02:19.012Z,66.00
2018-07-21T22:04:47.117Z,66.20
2018-07-21T22:07:15.370Z,66.60
2018-07-21T22:09:43.463Z,66.80
2018-07-21T22:12:12.110Z,67.30
2018-07-21T22:14:40.283Z,67.70
2018-07-21T22:17:08.650Z,68.20
2018-07-21T22:19:36.917Z,68.40
2018-07-21T22:22:05.054Z,68.90
2018-07-21T22:29:29.131Z,70.00
2018-07-21T22:31:57.507Z,71.10
2018-07-21T22:34:25.602Z,71.00
2018-07-21T22:36:53.754Z,71.80
2018-07-21T22:39:22.132Z,71.60
2018-07-21T22:41:50.306Z,71.70
2018-07-21T22:44:18.473Z,71.90
2018-07-21T22:46:46.562Z,72.10
2018-07-21T22:49:14.650Z,72.30
2018-07-21T22:51:42.726Z,72.60
2018-07-21T22:54:11.070Z,72.80
2018-07-21T22:56:39.152Z,73.10
2018-07-21T22:59:07.243Z,73.30
2018-07-21T23:04:03.575Z,73.60
2018-07-21T23:06:31.646Z,73.90
2018-07-21T23:09:00.123Z,74.80
2018-07-21T23:11:28.228Z,74.80
2018-07-21T23:13:56.314Z,75.40
2018-07-21T23:18:52.254Z,75.30
2018-07-21T23:21:20.322Z,75.30
2018-07-21T23:23:48.755Z,75.50
2018-07-21T23:26:16.827Z,75.70
2018-07-21T23:28:44.900Z,75.70
2018-07-21T23:31:13.269Z,75.80
2018-07-21T23:33:41.399Z,76.00
2018-07-21T23:36:09.545Z,76.10
2018-07-21T23:38:37.892Z,76.60
2018-07-21T23:41:06.489Z,76.80
2018-07-21T23:43:34.567Z,77.00
2018-07-21T23:46:02.927Z,77.00
2018-07-21T23:48:31.103Z,78.20
2018-07-21T23:50:59.153Z,78.20
2018-07-21T23:53:27.523Z,78.20
2018-07-21T23:55:55.602Z,78.30
2018-07-21T23:58:23.650Z,78.20
